sensor_id;sensor_type;location;lat;lon;timestamp;temperature;humidity
36212;DHT22;22247;48.586;13.492;2022-09-03T00:00:40;9.80;99.90
36212;DHT22;22247;48.586;13.492;2022-09-03T00:08:31;9.50;99.90
36212;DHT22;22247;48.586;13.492;2022-09-03T00:11:05;9.80;99.90
36212;DHT22;22247;48.586;13.492;2022-09-03T00:13:43;9.90;99.90
36212;DHT22;22247;48.586;13.492;2022-09-03T00:16:15;9.60;99.90
36212;DHT22;22247;48.586;13.492;2022-09-03T00:18:51;9.60;99.90
36212;DHT22;22247;48.586;13.492;2022-09-03T00:23:59;9.80;99.90
36212;DHT22;22247;48.586;13.492;2022-09-03T00:26:29;9.60;99.90
36212;DHT22;22247;48.586;13.492;2022-09-03T00:29:15;9.90;99.90
36212;DHT22;22247;48.586;13.492;2022-09-03T00:31:48;9.80;99.90
36212;DHT22;22247;48.586;13.492;2022-09-03T00:34:18;9.60;99.90
36212;DHT22;22247;48.586;13.492;2022-09-03T00:39:19;9.60;99.90
36212;DHT22;22247;48.586;13.492;2022-09-03T00:47:45;9.80;99.90
36212;DHT22;22247;48.586;13.492;2022-09-03T01:04:18;9.00;99.90
36212;DHT22;22247;48.586;13.492;2022-09-03T01:09:30;9.40;99.90
36212;DHT22;22247;48.586;13.492;2022-09-03T01:15:03;8.80;99.90
36212;DHT22;22247;48.586;13.492;2022-09-03T01:20:31;8.70;99.90
36212;DHT22;22247;48.586;13.492;2022-09-03T01:35:05;8.90;99.90
36212;DHT22;22247;48.586;13.492;2022-09-03T01:47:45;8.70;99.90
36212;DHT22;22247;48.586;13.492;2022-09-03T01:50:42;8.70;99.90
36212;DHT22;22247;48.586;13.492;2022-09-03T01:59:14;8.60;99.90
36212;DHT22;22247;48.586;13.492;2022-09-03T02:02:22;8.40;99.90
36212;DHT22;22247;48.586;13.492;2022-09-03T02:07:31;8.50;99.90
36212;DHT22;22247;48.586;13.492;2022-09-03T02:09:59;9.20;99.90
36212;DHT22;22247;48.586;13.492;2022-09-03T02:12:29;8.70;99.90
36212;DHT22;22247;48.586;13.492;2022-09-03T02:14:59;8.80;99.90
36212;DHT22;22247;48.586;13.492;2022-09-03T02:17:27;9.00;99.90
36212;DHT22;22247;48.586;13.492;2022-09-03T02:19:55;8.50;99.90
36212;DHT22;22247;48.586;13.492;2022-09-03T02:22:21;8.50;99.90
36212;DHT22;22247;48.586;13.492;2022-09-03T02:24:47;8.70;99.90
36212;DHT22;22247;48.586;13.492;2022-09-03T02:27:17;8.00;99.90
36212;DHT22;22247;48.586;13.492;2022-09-03T02:29:43;8.50;99.90
36212;DHT22;22247;48.586;13.492;2022-09-03T02:32:11;8.20;99.90
36212;DHT22;22247;48.586;13.492;2022-09-03T02:37:12;8.30;99.90
36212;DHT22;22247;48.586;13.492;2022-09-03T02:39:41;8.00;99.90
36212;DHT22;22247;48.586;13.492;2022-09-03T02:42:08;8.00;99.90
36212;DHT22;22247;48.586;13.492;2022-09-03T02:44:51;8.70;99.90
36212;DHT22;22247;48.586;13.492;2022-09-03T02:47:17;8.40;99.90
36212;DHT22;22247;48.586;13.492;2022-09-03T02:49:47;8.30;99.90
36212;DHT22;22247;48.586;13.492;2022-09-03T02:52:15;8.50;99.90
36212;DHT22;22247;48.586;13.492;2022-09-03T02:57:15;8.40;99.90
36212;DHT22;22247;48.586;13.492;2022-09-03T02:59:41;8.40;99.90
36212;DHT22;22247;48.586;13.492;2022-09-03T03:02:12;8.30;99.90
36212;DHT22;22247;48.586;13.492;2022-09-03T03:04:40;8.00;99.90
36212;DHT22;22247;48.586;13.492;2022-09-03T03:07:08;8.10;99.90
36212;DHT22;22247;48.586;13.492;2022-09-03T03:09:36;8.40;99.90
36212;DHT22;22247;48.586;13.492;2022-09-03T03:12:02;7.90;99.90
36212;DHT22;22247;48.586;13.492;2022-09-03T03:16:53;8.30;99.90
36212;DHT22;22247;48.586;13.492;2022-09-03T03:19:21;7.90;99.90
36212;DHT22;22247;48.586;13.492;2022-09-03T03:26:49;7.90;99.90
36212;DHT22;22247;48.586;13.492;2022-09-03T03:29:17;7.90;99.90
36212;DHT22;22247;48.586;13.492;2022-09-03T03:31:43;7.60;99.90
36212;DHT22;22247;48.586;13.492;2022-09-03T03:34:08;7.50;99.90
36212;DHT22;22247;48.586;13.492;2022-09-03T03:39:05;7.80;99.90
36212;DHT22;22247;48.586;13.492;2022-09-03T03:41:34;7.40;99.90
36212;DHT22;22247;48.586;13.492;2022-09-03T03:44:06;7.60;99.90
36212;DHT22;22247;48.586;13.492;2022-09-03T03:46:33;7.60;99.90
36212;DHT22;22247;48.586;13.492;2022-09-03T03:48:59;7.70;99.90
36212;DHT22;22247;48.586;13.492;2022-09-03T03:51:26;7.30;99.90
36212;DHT22;22247;48.586;13.492;2022-09-03T03:53:58;7.60;99.90
36212;DHT22;22247;48.586;13.492;2022-09-03T03:56:25;7.60;99.90
36212;DHT22;22247;48.586;13.492;2022-09-03T03:58:54;7.60;99.90
36212;DHT22;22247;48.586;13.492;2022-09-03T04:01:22;7.30;99.90
36212;DHT22;22247;48.586;13.492;2022-09-03T04:03:51;7.20;99.90
36212;DHT22;22247;48.586;13.492;2022-09-03T04:06:19;7.50;99.90
36212;DHT22;22247;48.586;13.492;2022-09-03T04:08:48;7.60;99.90
36212;DHT22;22247;48.586;13.492;2022-09-03T04:11:17;7.50;99.90
36212;DHT22;22247;48.586;13.492;2022-09-03T04:13:49;7.70;99.90
36212;DHT22;22247;48.586;13.492;2022-09-03T04:16:20;7.80;99.90
36212;DHT22;22247;48.586;13.492;2022-09-03T04:18:49;7.90;99.90
36212;DHT22;22247;48.586;13.492;2022-09-03T04:21:20;8.20;99.90
36212;DHT22;22247;48.586;13.492;2022-09-03T04:23:50;7.90;99.90
36212;DHT22;22247;48.586;13.492;2022-09-03T04:26:19;7.80;99.90
36212;DHT22;22247;48.586;13.492;2022-09-03T04:28:49;8.20;99.90
36212;DHT22;22247;48.586;13.492;2022-09-03T04:31:19;7.90;99.90
36212;DHT22;22247;48.586;13.492;2022-09-03T04:33:48;7.90;99.90
36212;DHT22;22247;48.586;13.492;2022-09-03T04:36:23;8.10;99.90
36212;DHT22;22247;48.586;13.492;2022-09-03T04:38:53;8.40;99.90
36212;DHT22;22247;48.586;13.492;2022-09-03T04:41:26;8.10;99.90
36212;DHT22;22247;48.586;13.492;2022-09-03T04:43:54;8.60;99.90
36212;DHT22;22247;48.586;13.492;2022-09-03T04:46:21;8.00;99.90
36212;DHT22;22247;48.586;13.492;2022-09-03T04:48:49;8.00;99.90
36212;DHT22;22247;48.586;13.492;2022-09-03T04:51:17;8.30;99.90
36212;DHT22;22247;48.586;13.492;2022-09-03T04:53:45;8.40;99.90
36212;DHT22;22247;48.586;13.492;2022-09-03T04:56:22;8.10;99.90
36212;DHT22;22247;48.586;13.492;2022-09-03T04:58:57;8.40;99.90
36212;DHT22;22247;48.586;13.492;2022-09-03T05:01:25;8.30;99.90
36212;DHT22;22247;48.586;13.492;2022-09-03T05:03:51;8.30;99.90
36212;DHT22;22247;48.586;13.492;2022-09-03T05:06:17;8.50;99.90
36212;DHT22;22247;48.586;13.492;2022-09-03T05:08:47;8.50;99.90
36212;DHT22;22247;48.586;13.492;2022-09-03T05:11:13;8.60;99.90
36212;DHT22;22247;48.586;13.492;2022-09-03T05:13:42;8.90;99.90
36212;DHT22;22247;48.586;13.492;2022-09-03T05:16:09;8.80;99.90
36212;DHT22;22247;48.586;13.492;2022-09-03T05:18:38;8.90;99.90
36212;DHT22;22247;48.586;13.492;2022-09-03T05:21:06;9.40;99.90
36212;DHT22;22247;48.586;13.492;2022-09-03T05:23:40;9.30;99.90
36212;DHT22;22247;48.586;13.492;2022-09-03T05:26:14;9.40;99.90
36212;DHT22;22247;48.586;13.492;2022-09-03T05:28:42;9.80;99.90
36212;DHT22;22247;48.586;13.492;2022-09-03T05:33:39;9.90;99.90
36212;DHT22;22247;48.586;13.492;2022-09-03T05:36:12;10.20;99.90
36212;DHT22;22247;48.586;13.492;2022-09-03T05:41:06;10.80;99.90
36212;DHT22;22247;48.586;13.492;2022-09-03T05:43:36;10.60;99.90
36212;DHT22;22247;48.586;13.492;2022-09-03T05:46:09;10.70;99.90
36212;DHT22;22247;48.586;13.492;2022-09-03T05:48:37;10.80;99.90
36212;DHT22;22247;48.586;13.492;2022-09-03T05:51:04;10.80;99.90
36212;DHT22;22247;48.586;13.492;2022-09-03T05:53:33;11.30;99.90
36212;DHT22;22247;48.586;13.492;2022-09-03T05:56:01;11.10;99.90
36212;DHT22;22247;48.586;13.492;2022-09-03T05:58:36;11.40;99.90
36212;DHT22;22247;48.586;13.492;2022-09-03T06:03:56;11.20;99.90
36212;DHT22;22247;48.586;13.492;2022-09-03T06:06:24;12.10;99.90
36212;DHT22;22247;48.586;13.492;2022-09-03T06:08:57;11.90;99.90
36212;DHT22;22247;48.586;13.492;2022-09-03T06:11:26;12.00;99.90
36212;DHT22;22247;48.586;13.492;2022-09-03T06:13:55;12.10;99.90
36212;DHT22;22247;48.586;13.492;2022-09-03T06:16:23;12.80;99.90
36212;DHT22;22247;48.586;13.492;2022-09-03T06:26:12;12.60;99.90
36212;DHT22;22247;48.586;13.492;2022-09-03T06:28:42;12.80;99.90
36212;DHT22;22247;48.586;13.492;2022-09-03T06:31:10;12.90;99.90
36212;DHT22;22247;48.586;13.492;2022-09-03T06:33:39;13.00;99.90
36212;DHT22;22247;48.586;13.492;2022-09-03T06:36:10;13.50;99.90
36212;DHT22;22247;48.586;13.492;2022-09-03T06:38:37;13.60;99.90
36212;DHT22;22247;48.586;13.492;2022-09-03T06:41:22;13.80;99.90
36212;DHT22;22247;48.586;13.492;2022-09-03T06:43:53;14.10;99.90
36212;DHT22;22247;48.586;13.492;2022-09-03T06:46:23;13.80;99.90
36212;DHT22;22247;48.586;13.492;2022-09-03T06:48:51;14.00;99.90
36212;DHT22;22247;48.586;13.492;2022-09-03T06:51:26;14.20;99.90
36212;DHT22;22247;48.586;13.492;2022-09-03T06:53:58;14.40;99.90
36212;DHT22;22247;48.586;13.492;2022-09-03T06:56:26;14.60;99.90
36212;DHT22;22247;48.586;13.492;2022-09-03T06:58:56;14.70;99.90
36212;DHT22;22247;48.586;13.492;2022-09-03T07:01:27;14.80;99.90
36212;DHT22;22247;48.586;13.492;2022-09-03T07:03:57;14.90;99.90
36212;DHT22;22247;48.586;13.492;2022-09-03T07:06:25;15.10;99.90
36212;DHT22;22247;48.586;13.492;2022-09-03T07:08:54;15.30;99.90
36212;DHT22;22247;48.586;13.492;2022-09-03T07:11:23;15.50;99.90
36212;DHT22;22247;48.586;13.492;2022-09-03T07:13:51;15.40;99.90
36212;DHT22;22247;48.586;13.492;2022-09-03T07:16:22;15.70;99.90
36212;DHT22;22247;48.586;13.492;2022-09-03T07:18:49;15.80;99.90
36212;DHT22;22247;48.586;13.492;2022-09-03T07:21:20;16.00;99.90
36212;DHT22;22247;48.586;13.492;2022-09-03T07:23:49;16.20;99.90
36212;DHT22;22247;48.586;13.492;2022-09-03T07:26:26;16.10;99.90
36212;DHT22;22247;48.586;13.492;2022-09-03T07:28:56;16.30;99.90
36212;DHT22;22247;48.586;13.492;2022-09-03T07:34:00;16.50;99.90
36212;DHT22;22247;48.586;13.492;2022-09-03T07:36:34;16.60;99.90
36212;DHT22;22247;48.586;13.492;2022-09-03T07:39:05;16.60;99.90
36212;DHT22;22247;48.586;13.492;2022-09-03T07:41:31;17.30;99.90
36212;DHT22;22247;48.586;13.492;2022-09-03T07:43:58;16.90;99.90
36212;DHT22;22247;48.586;13.492;2022-09-03T07:46:26;16.90;99.90
36212;DHT22;22247;48.586;13.492;2022-09-03T07:51:18;17.50;99.90
36212;DHT22;22247;48.586;13.492;2022-09-03T07:53:46;17.70;99.90
36212;DHT22;22247;48.586;13.492;2022-09-03T07:56:12;17.90;99.90
36212;DHT22;22247;48.586;13.492;2022-09-03T07:58:40;17.80;99.90
36212;DHT22;22247;48.586;13.492;2022-09-03T08:01:26;17.90;99.90
36212;DHT22;22247;48.586;13.492;2022-09-03T08:03:53;18.20;99.90
36212;DHT22;22247;48.586;13.492;2022-09-03T08:06:26;18.10;99.90
36212;DHT22;22247;48.586;13.492;2022-09-03T08:09:04;18.30;99.90
36212;DHT22;22247;48.586;13.492;2022-09-03T08:14:04;17.80;99.90
36212;DHT22;22247;48.586;13.492;2022-09-03T08:16:35;18.00;99.90
36212;DHT22;22247;48.586;13.492;2022-09-03T08:19:01;18.10;99.90
36212;DHT22;22247;48.586;13.492;2022-09-03T08:21:29;18.10;99.90
36212;DHT22;22247;48.586;13.492;2022-09-03T08:23:56;18.20;99.90
36212;DHT22;22247;48.586;13.492;2022-09-03T08:26:31;18.40;99.90
36212;DHT22;22247;48.586;13.492;2022-09-03T08:28:59;18.60;99.90
36212;DHT22;22247;48.586;13.492;2022-09-03T08:31:26;18.50;99.90
36212;DHT22;22247;48.586;13.492;2022-09-03T08:33:56;18.60;99.90
36212;DHT22;22247;48.586;13.492;2022-09-03T08:36:28;18.60;99.90
36212;DHT22;22247;48.586;13.492;2022-09-03T08:39:00;18.60;99.90
36212;DHT22;22247;48.586;13.492;2022-09-03T08:50:42;19.20;99.90
36212;DHT22;22247;48.586;13.492;2022-09-03T08:55:59;18.90;99.90
36212;DHT22;22247;48.586;13.492;2022-09-03T08:58:34;19.00;99.90
36212;DHT22;22247;48.586;13.492;2022-09-03T09:09:14;19.50;99.90
36212;DHT22;22247;48.586;13.492;2022-09-03T09:15:02;20.00;99.90
36212;DHT22;22247;48.586;13.492;2022-09-03T09:21:08;19.60;99.90
36212;DHT22;22247;48.586;13.492;2022-09-03T09:23:29;19.50;99.90
36212;DHT22;22247;48.586;13.492;2022-09-03T09:25:56;19.70;99.90
36212;DHT22;22247;48.586;13.492;2022-09-03T09:28:34;19.80;99.90
36212;DHT22;22247;48.586;13.492;2022-09-03T09:31:04;19.90;99.90
36212;DHT22;22247;48.586;13.492;2022-09-03T09:33:33;19.90;99.90
36212;DHT22;22247;48.586;13.492;2022-09-03T09:36:08;19.70;99.90
36212;DHT22;22247;48.586;13.492;2022-09-03T09:38:37;19.50;99.90
36212;DHT22;22247;48.586;13.492;2022-09-03T09:41:12;19.70;99.90
36212;DHT22;22247;48.586;13.492;2022-09-03T09:43:41;20.20;99.90
36212;DHT22;22247;48.586;13.492;2022-09-03T09:46:15;20.10;99.90
36212;DHT22;22247;48.586;13.492;2022-09-03T09:48:50;20.30;99.90
36212;DHT22;22247;48.586;13.492;2022-09-03T09:51:22;20.70;99.90
36212;DHT22;22247;48.586;13.492;2022-09-03T09:56:35;20.80;98.50
36212;DHT22;22247;48.586;13.492;2022-09-03T09:59:08;20.80;98.80
36212;DHT22;22247;48.586;13.492;2022-09-03T10:01:42;20.80;99.90
36212;DHT22;22247;48.586;13.492;2022-09-03T10:06:34;21.20;99.90
36212;DHT22;22247;48.586;13.492;2022-09-03T10:09:26;20.80;98.10
36212;DHT22;22247;48.586;13.492;2022-09-03T10:14:43;21.00;98.00
36212;DHT22;22247;48.586;13.492;2022-09-03T10:17:20;21.60;99.90
36212;DHT22;22247;48.586;13.492;2022-09-03T10:20:12;21.50;99.90
36212;DHT22;22247;48.586;13.492;2022-09-03T10:25:38;21.60;99.90
36212;DHT22;22247;48.586;13.492;2022-09-03T10:28:08;21.40;99.90
36212;DHT22;22247;48.586;13.492;2022-09-03T10:30:44;21.40;96.60
36212;DHT22;22247;48.586;13.492;2022-09-03T10:33:25;21.30;99.90
36212;DHT22;22247;48.586;13.492;2022-09-03T10:36:09;21.10;99.90
36212;DHT22;22247;48.586;13.492;2022-09-03T10:38:39;21.00;99.90
36212;DHT22;22247;48.586;13.492;2022-09-03T10:46:21;21.70;95.70
36212;DHT22;22247;48.586;13.492;2022-09-03T11:00:00;21.70;95.40
36212;DHT22;22247;48.586;13.492;2022-09-03T11:05:36;22.00;99.90
36212;DHT22;22247;48.586;13.492;2022-09-03T11:08:08;22.50;99.90
36212;DHT22;22247;48.586;13.492;2022-09-03T11:10:48;22.10;94.60
36212;DHT22;22247;48.586;13.492;2022-09-03T11:13:21;22.10;94.50
36212;DHT22;22247;48.586;13.492;2022-09-03T11:15:59;22.30;98.90
36212;DHT22;22247;48.586;13.492;2022-09-03T11:21:17;22.40;99.90
36212;DHT22;22247;48.586;13.492;2022-09-03T11:23:46;22.20;94.40
36212;DHT22;22247;48.586;13.492;2022-09-03T11:26:18;22.30;99.90
36212;DHT22;22247;48.586;13.492;2022-09-03T11:29:00;22.50;94.30
36212;DHT22;22247;48.586;13.492;2022-09-03T11:31:37;23.30;99.90
36212;DHT22;22247;48.586;13.492;2022-09-03T11:36:47;23.60;92.70
36212;DHT22;22247;48.586;13.492;2022-09-03T11:39:23;24.20;99.90
36212;DHT22;22247;48.586;13.492;2022-09-03T11:44:25;24.70;99.90
36212;DHT22;22247;48.586;13.492;2022-09-03T11:47:01;24.20;92.00
36212;DHT22;22247;48.586;13.492;2022-09-03T11:49:48;24.20;99.90
36212;DHT22;22247;48.586;13.492;2022-09-03T11:52:27;24.30;91.40
36212;DHT22;22247;48.586;13.492;2022-09-03T11:54:54;24.30;90.50
36212;DHT22;22247;48.586;13.492;2022-09-03T11:59:52;23.70;99.90
36212;DHT22;22247;48.586;13.492;2022-09-03T12:02:35;23.60;89.50
36212;DHT22;22247;48.586;13.492;2022-09-03T12:19:40;23.70;99.90
36212;DHT22;22247;48.586;13.492;2022-09-03T12:22:12;24.00;99.90
36212;DHT22;22247;48.586;13.492;2022-09-03T12:27:14;23.40;90.90
36212;DHT22;22247;48.586;13.492;2022-09-03T12:29:56;23.10;90.80
36212;DHT22;22247;48.586;13.492;2022-09-03T12:32:26;22.70;99.90
36212;DHT22;22247;48.586;13.492;2022-09-03T12:38:41;21.80;93.30
36212;DHT22;22247;48.586;13.492;2022-09-03T12:43:53;22.00;92.80
36212;DHT22;22247;48.586;13.492;2022-09-03T12:49:44;22.20;93.80
36212;DHT22;22247;48.586;13.492;2022-09-03T12:57:28;22.40;93.10
36212;DHT22;22247;48.586;13.492;2022-09-03T13:00:20;22.40;93.40
36212;DHT22;22247;48.586;13.492;2022-09-03T13:02:57;22.40;93.90
36212;DHT22;22247;48.586;13.492;2022-09-03T13:05:45;22.50;92.90
36212;DHT22;22247;48.586;13.492;2022-09-03T13:08:19;22.50;93.00
36212;DHT22;22247;48.586;13.492;2022-09-03T13:10:50;22.40;93.70
36212;DHT22;22247;48.586;13.492;2022-09-03T13:13:35;22.30;94.60
36212;DHT22;22247;48.586;13.492;2022-09-03T13:21:49;22.10;93.90
36212;DHT22;22247;48.586;13.492;2022-09-03T13:35:11;22.40;99.90
36212;DHT22;22247;48.586;13.492;2022-09-03T13:37:39;22.50;99.90
36212;DHT22;22247;48.586;13.492;2022-09-03T13:40:14;22.60;99.90
36212;DHT22;22247;48.586;13.492;2022-09-03T13:43:17;22.40;99.90
36212;DHT22;22247;48.586;13.492;2022-09-03T13:45:58;22.60;99.90
36212;DHT22;22247;48.586;13.492;2022-09-03T13:48:40;22.90;99.90
36212;DHT22;22247;48.586;13.492;2022-09-03T13:51:40;22.80;95.10
36212;DHT22;22247;48.586;13.492;2022-09-03T13:59:56;25.70;93.10
36212;DHT22;22247;48.586;13.492;2022-09-03T14:21:55;23.40;93.50
36212;DHT22;22247;48.586;13.492;2022-09-03T14:26:57;23.30;93.20
36212;DHT22;22247;48.586;13.492;2022-09-03T14:29:34;23.00;99.90
36212;DHT22;22247;48.586;13.492;2022-09-03T14:46:14;23.30;99.10
36212;DHT22;22247;48.586;13.492;2022-09-03T15:12:56;23.00;99.90
36212;DHT22;22247;48.586;13.492;2022-09-03T15:37:12;23.60;99.90
36212;DHT22;22247;48.586;13.492;2022-09-03T15:39:43;23.70;99.90
36212;DHT22;22247;48.586;13.492;2022-09-03T15:42:25;24.30;99.90
36212;DHT22;22247;48.586;13.492;2022-09-03T15:45:05;25.50;98.00
36212;DHT22;22247;48.586;13.492;2022-09-03T15:47:53;25.20;98.10
36212;DHT22;22247;48.586;13.492;2022-09-03T15:51:10;24.60;98.30
36212;DHT22;22247;48.586;13.492;2022-09-03T15:53:24;24.00;99.90
36212;DHT22;22247;48.586;13.492;2022-09-03T15:56:17;23.30;99.90
36212;DHT22;22247;48.586;13.492;2022-09-03T15:59:11;22.70;94.00
36212;DHT22;22247;48.586;13.492;2022-09-03T16:01:47;22.60;99.90
36212;DHT22;22247;48.586;13.492;2022-09-03T16:15:12;21.20;99.90
36212;DHT22;22247;48.586;13.492;2022-09-03T16:20:44;20.80;99.20
36212;DHT22;22247;48.586;13.492;2022-09-03T16:23:20;21.00;99.90
36212;DHT22;22247;48.586;13.492;2022-09-03T16:25:56;20.70;99.90
36212;DHT22;22247;48.586;13.492;2022-09-03T16:28:51;20.80;99.90
36212;DHT22;22247;48.586;13.492;2022-09-03T16:42:38;20.40;99.60
36212;DHT22;22247;48.586;13.492;2022-09-03T16:51:39;20.10;99.90
36212;DHT22;22247;48.586;13.492;2022-09-03T16:56:21;19.70;99.90
36212;DHT22;22247;48.586;13.492;2022-09-03T16:59:00;19.60;99.90
36212;DHT22;22247;48.586;13.492;2022-09-03T17:26:27;19.00;99.90
36212;DHT22;22247;48.586;13.492;2022-09-03T17:29:25;18.60;99.90
36212;DHT22;22247;48.586;13.492;2022-09-03T17:43:55;18.50;99.90
36212;DHT22;22247;48.586;13.492;2022-09-03T17:49:26;18.70;99.90
36212;DHT22;22247;48.586;13.492;2022-09-03T17:52:42;18.60;99.90
36212;DHT22;22247;48.586;13.492;2022-09-03T17:54:46;18.70;99.90
36212;DHT22;22247;48.586;13.492;2022-09-03T18:00:04;18.50;99.90
36212;DHT22;22247;48.586;13.492;2022-09-03T18:05:17;17.90;99.90
36212;DHT22;22247;48.586;13.492;2022-09-03T18:16:05;17.80;99.90
36212;DHT22;22247;48.586;13.492;2022-09-03T18:18:37;17.70;99.90
36212;DHT22;22247;48.586;13.492;2022-09-03T18:21:10;17.70;99.90
36212;DHT22;22247;48.586;13.492;2022-09-03T18:26:59;17.50;99.90
36212;DHT22;22247;48.586;13.492;2022-09-03T18:32:31;17.60;99.90
36212;DHT22;22247;48.586;13.492;2022-09-03T18:35:15;17.60;99.90
36212;DHT22;22247;48.586;13.492;2022-09-03T18:38:02;18.00;99.90
36212;DHT22;22247;48.586;13.492;2022-09-03T18:41:00;17.90;99.90
36212;DHT22;22247;48.586;13.492;2022-09-03T18:43:55;18.10;99.90
36212;DHT22;22247;48.586;13.492;2022-09-03T18:52:45;17.90;99.90
36212;DHT22;22247;48.586;13.492;2022-09-03T18:58:39;17.70;99.90
36212;DHT22;22247;48.586;13.492;2022-09-03T19:01:34;17.80;99.90
36212;DHT22;22247;48.586;13.492;2022-09-03T19:04:36;17.60;99.90
36212;DHT22;22247;48.586;13.492;2022-09-03T19:07:59;17.60;99.90
36212;DHT22;22247;48.586;13.492;2022-09-03T19:22:38;17.50;99.90
36212;DHT22;22247;48.586;13.492;2022-09-03T19:25:25;17.50;99.90
36212;DHT22;22247;48.586;13.492;2022-09-03T19:34:44;16.90;99.90
36212;DHT22;22247;48.586;13.492;2022-09-03T19:37:39;17.40;99.90
36212;DHT22;22247;48.586;13.492;2022-09-03T19:40:36;17.10;99.90
36212;DHT22;22247;48.586;13.492;2022-09-03T19:49:53;17.00;99.90
36212;DHT22;22247;48.586;13.492;2022-09-03T19:55:45;17.10;99.90
36212;DHT22;22247;48.586;13.492;2022-09-03T19:58:31;17.10;99.90
36212;DHT22;22247;48.586;13.492;2022-09-03T20:01:16;17.20;99.90
36212;DHT22;22247;48.586;13.492;2022-09-03T20:04:14;17.30;99.90
36212;DHT22;22247;48.586;13.492;2022-09-03T20:07:02;17.30;99.90
36212;DHT22;22247;48.586;13.492;2022-09-03T20:09:47;17.20;99.90
36212;DHT22;22247;48.586;13.492;2022-09-03T20:12:36;17.00;99.90
36212;DHT22;22247;48.586;13.492;2022-09-03T20:15:08;17.20;99.90
36212;DHT22;22247;48.586;13.492;2022-09-03T20:20:14;17.10;99.90
36212;DHT22;22247;48.586;13.492;2022-09-03T20:22:58;17.30;99.90
36212;DHT22;22247;48.586;13.492;2022-09-03T20:40:07;16.90;99.90
36212;DHT22;22247;48.586;13.492;2022-09-03T20:45:17;16.70;99.90
36212;DHT22;22247;48.586;13.492;2022-09-03T20:53:40;16.20;99.90
36212;DHT22;22247;48.586;13.492;2022-09-03T20:59:29;16.20;99.90
36212;DHT22;22247;48.586;13.492;2022-09-03T21:02:09;16.40;99.90
36212;DHT22;22247;48.586;13.492;2022-09-03T21:18:23;16.70;99.90
36212;DHT22;22247;48.586;13.492;2022-09-03T21:23:46;16.30;99.90
36212;DHT22;22247;48.586;13.492;2022-09-03T21:26:20;16.20;99.90
36212;DHT22;22247;48.586;13.492;2022-09-03T21:31:39;16.30;99.90
36212;DHT22;22247;48.586;13.492;2022-09-03T21:34:18;15.90;99.90
36212;DHT22;22247;48.586;13.492;2022-09-03T21:36:45;15.90;99.90
36212;DHT22;22247;48.586;13.492;2022-09-03T21:39:46;16.00;99.90
36212;DHT22;22247;48.586;13.492;2022-09-03T21:42:38;16.00;99.90
36212;DHT22;22247;48.586;13.492;2022-09-03T21:47:59;15.90;99.90
36212;DHT22;22247;48.586;13.492;2022-09-03T21:50:44;16.20;99.90
36212;DHT22;22247;48.586;13.492;2022-09-03T21:53:16;15.60;99.90
36212;DHT22;22247;48.586;13.492;2022-09-03T22:06:32;15.50;99.90
36212;DHT22;22247;48.586;13.492;2022-09-03T22:09:08;15.70;99.90
36212;DHT22;22247;48.586;13.492;2022-09-03T22:14:25;15.20;99.90
36212;DHT22;22247;48.586;13.492;2022-09-03T22:17:01;15.20;99.90
36212;DHT22;22247;48.586;13.492;2022-09-03T22:19:30;15.10;99.90
36212;DHT22;22247;48.586;13.492;2022-09-03T22:24:47;15.10;99.90
36212;DHT22;22247;48.586;13.492;2022-09-03T22:30:16;15.00;99.90
36212;DHT22;22247;48.586;13.492;2022-09-03T22:44:00;15.10;99.90
36212;DHT22;22247;48.586;13.492;2022-09-03T22:46:57;15.00;99.90
36212;DHT22;22247;48.586;13.492;2022-09-03T22:55:13;14.80;99.90
36212;DHT22;22247;48.586;13.492;2022-09-03T23:00:23;14.60;99.90
36212;DHT22;22247;48.586;13.492;2022-09-03T23:02:58;15.10;99.90
36212;DHT22;22247;48.586;13.492;2022-09-03T23:05:39;14.70;99.90
36212;DHT22;22247;48.586;13.492;2022-09-03T23:08:14;14.70;99.90
36212;DHT22;22247;48.586;13.492;2022-09-03T23:11:02;14.60;99.90
36212;DHT22;22247;48.586;13.492;2022-09-03T23:13:44;14.60;99.90
36212;DHT22;22247;48.586;13.492;2022-09-03T23:16:39;14.70;99.90
36212;DHT22;22247;48.586;13.492;2022-09-03T23:19:33;14.70;99.90
36212;DHT22;22247;48.586;13.492;2022-09-03T23:22:08;14.80;99.90
36212;DHT22;22247;48.586;13.492;2022-09-03T23:27:16;14.90;99.90
36212;DHT22;22247;48.586;13.492;2022-09-03T23:29:44;14.80;99.90
36212;DHT22;22247;48.586;13.492;2022-09-03T23:32:14;15.00;99.90
36212;DHT22;22247;48.586;13.492;2022-09-03T23:34:44;15.20;99.90
36212;DHT22;22247;48.586;13.492;2022-09-03T23:58:55;14.90;99.90
